createdAt,value
2019-01-30T00:01:06.983Z,75.84
2019-01-30T00:03:39.402Z,76.47
2019-01-30T00:06:11.109Z,77.34
2019-01-30T00:08:42.612Z,77.78
2019-01-30T00:11:20.347Z,77.93
2019-01-30T00:13:52.102Z,78.10
2019-01-30T00:16:24.598Z,77.69
2019-01-30T00:18:59.088Z,76.94
2019-01-30T00:21:34.210Z,77.03
2019-01-30T00:24:08.040Z,76.90
2019-01-30T00:26:41.363Z,76.76
2019-01-30T00:29:16.894Z,76.43
2019-01-30T00:31:50.331Z,75.97
2019-01-30T00:34:22.118Z,75.39
2019-01-30T00:36:55.958Z,75.71
2019-01-30T00:39:28.236Z,75.88
2019-01-30T00:41:59.442Z,75.84
2019-01-30T00:44:35.022Z,75.15
2019-01-30T00:47:15.600Z,75.25
2019-01-30T00:49:42.239Z,75.25
2019-01-30T00:52:13.457Z,75.59
2019-01-30T00:54:46.354Z,75.92
2019-01-30T00:57:19.997Z,76.26
2019-01-30T00:59:55.454Z,76.80
2019-01-30T01:02:28.350Z,77.25
2019-01-30T01:05:00.820Z,77.38
2019-01-30T01:07:34.155Z,77.64
2019-01-30T01:10:10.265Z,78.32
2019-01-30T01:12:51.231Z,78.74
2019-01-30T01:15:24.049Z,79.08
2019-01-30T01:17:57.294Z,79.18
2019-01-30T01:20:30.642Z,79.22
2019-01-30T01:23:05.670Z,79.11
2019-01-30T01:25:38.624Z,79.29
2019-01-30T01:28:11.633Z,79.25
2019-01-30T01:30:42.707Z,79.06
2019-01-30T01:33:16.491Z,78.74
2019-01-30T01:35:52.133Z,78.32
2019-01-30T01:38:27.609Z,78.19
2019-01-30T01:41:01.616Z,77.95
2019-01-30T01:43:38.042Z,78.04
2019-01-30T01:46:09.933Z,77.33
2019-01-30T01:48:40.998Z,77.31
2019-01-30T01:51:15.039Z,77.80
2019-01-30T01:53:48.347Z,78.24
2019-01-30T01:56:20.169Z,78.32
2019-01-30T01:58:53.535Z,78.48
2019-01-30T02:01:26.427Z,78.38
2019-01-30T02:03:59.856Z,78.02
2019-01-30T02:06:31.659Z,77.68
2019-01-30T02:09:05.143Z,77.55
2019-01-30T02:11:39.187Z,77.37
2019-01-30T02:14:13.027Z,77.50
2019-01-30T02:16:45.530Z,77.41
2019-01-30T02:19:19.821Z,77.34
2019-01-30T02:21:56.769Z,77.52
2019-01-30T02:24:29.049Z,77.43
2019-01-30T02:27:01.972Z,77.73
2019-01-30T02:29:35.508Z,78.14
2019-01-30T02:32:12.640Z,78.11
2019-01-30T02:34:48.985Z,77.97
2019-01-30T02:37:21.759Z,77.67
2019-01-30T02:39:55.644Z,77.08
2019-01-30T02:42:26.785Z,76.45
2019-01-30T02:44:57.879Z,76.33
2019-01-30T02:47:30.026Z,76.26
2019-01-30T02:50:03.992Z,76.08
2019-01-30T02:52:38.513Z,76.17
2019-01-30T02:55:17.616Z,76.67
2019-01-30T02:57:49.703Z,76.37
2019-01-30T03:00:28.433Z,76.37
2019-01-30T03:03:02.973Z,76.36
2019-01-30T03:05:36.011Z,76.36
2019-01-30T03:08:11.870Z,76.59
2019-01-30T03:10:46.017Z,76.91
2019-01-30T03:13:21.173Z,77.11
2019-01-30T03:15:55.040Z,77.08
2019-01-30T03:18:27.555Z,77.28
2019-01-30T03:21:01.777Z,77.86
2019-01-30T03:23:36.573Z,77.86
2019-01-30T03:26:10.434Z,78.19
2019-01-30T03:28:42.276Z,78.46
2019-01-30T03:31:18.896Z,78.26
2019-01-30T03:33:50.692Z,78.31
2019-01-30T03:36:23.368Z,78.23
2019-01-30T03:38:57.330Z,78.35
2019-01-30T03:41:31.919Z,78.04
2019-01-30T03:44:05.802Z,77.69
2019-01-30T03:46:38.016Z,77.58
2019-01-30T03:49:10.629Z,77.63
2019-01-30T03:51:45.873Z,77.77
2019-01-30T03:54:18.743Z,77.54
2019-01-30T03:56:52.755Z,77.07
2019-01-30T03:59:25.653Z,77.06
2019-01-30T04:01:58.674Z,77.15
2019-01-30T04:04:30.930Z,77.03
2019-01-30T04:07:03.108Z,77.09
2019-01-30T04:09:36.031Z,76.60
2019-01-30T04:12:11.095Z,76.07
2019-01-30T04:14:42.999Z,75.75
2019-01-30T04:17:17.420Z,75.82
2019-01-30T04:19:49.610Z,76.69
2019-01-30T04:22:24.577Z,76.85
2019-01-30T04:25:03.890Z,77.20
2019-01-30T04:27:35.609Z,77.29
2019-01-30T04:30:13.560Z,77.11
2019-01-30T04:32:51.625Z,77.33
2019-01-30T04:35:25.611Z,77.58
2019-01-30T04:38:00.526Z,77.95
2019-01-30T04:40:31.932Z,77.82
2019-01-30T04:43:06.018Z,78.05
2019-01-30T04:45:37.793Z,78.16
2019-01-30T04:48:09.532Z,78.43
2019-01-30T04:50:43.642Z,78.38
2019-01-30T04:53:16.349Z,78.18
2019-01-30T04:55:50.973Z,77.88
2019-01-30T04:58:25.627Z,77.78
2019-01-30T05:01:00.567Z,78.37
2019-01-30T05:03:33.758Z,78.45
2019-01-30T05:06:06.882Z,77.97
2019-01-30T05:08:38.902Z,77.86
2019-01-30T05:11:10.621Z,78.15
2019-01-30T05:13:42.373Z,78.39
2019-01-30T05:16:15.360Z,78.27
2019-01-30T05:18:47.389Z,78.60
2019-01-30T05:21:19.634Z,79.03
2019-01-30T05:23:54.436Z,79.36
2019-01-30T05:26:27.387Z,79.32
2019-01-30T05:28:58.449Z,79.70
2019-01-30T05:31:29.502Z,79.83
2019-01-30T05:34:02.021Z,79.99
2019-01-30T05:36:33.464Z,80.02
2019-01-30T05:39:06.512Z,80.28
2019-01-30T05:41:42.469Z,80.46
2019-01-30T05:44:16.713Z,80.66
2019-01-30T05:46:50.119Z,80.94
2019-01-30T05:49:22.934Z,81.42
2019-01-30T05:51:55.477Z,81.67
2019-01-30T05:54:29.111Z,82.03
2019-01-30T05:57:02.468Z,82.34
2019-01-30T05:59:37.060Z,82.25
2019-01-30T06:02:12.209Z,82.27
2019-01-30T06:04:49.551Z,82.56
2019-01-30T06:07:23.087Z,83.08
2019-01-30T06:09:57.147Z,83.95
2019-01-30T06:12:29.199Z,83.40
2019-01-30T06:15:01.280Z,83.12
2019-01-30T06:17:32.798Z,82.98
2019-01-30T06:20:07.970Z,82.89
2019-01-30T06:22:39.702Z,82.97
2019-01-30T06:25:12.924Z,83.08
2019-01-30T06:27:43.953Z,83.20
2019-01-30T06:30:19.191Z,82.99
2019-01-30T06:32:52.970Z,83.38
2019-01-30T06:35:25.523Z,83.46
2019-01-30T06:37:56.612Z,83.59
2019-01-30T06:40:34.664Z,83.51
2019-01-30T06:43:09.598Z,83.61
2019-01-30T06:45:47.015Z,83.44
2019-01-30T06:48:18.753Z,83.65
2019-01-30T06:50:50.931Z,83.60
2019-01-30T06:53:23.624Z,83.71
2019-01-30T06:55:55.262Z,83.66
2019-01-30T06:58:29.493Z,83.84
2019-01-30T07:01:01.230Z,83.71
2019-01-30T07:03:33.700Z,83.47
2019-01-30T07:06:07.881Z,83.84
2019-01-30T07:08:44.065Z,83.89
2019-01-30T07:11:16.463Z,83.72
2019-01-30T07:13:48.771Z,83.96
2019-01-30T07:16:24.678Z,84.15
2019-01-30T07:18:58.952Z,84.12
2019-01-30T07:21:30.440Z,84.15
2019-01-30T07:24:04.281Z,84.25
2019-01-30T07:26:37.462Z,84.05
2019-01-30T07:29:08.968Z,84.07
2019-01-30T07:31:42.891Z,84.06
2019-01-30T07:34:14.916Z,84.04
2019-01-30T07:36:46.129Z,84.02
2019-01-30T07:39:18.175Z,84.12
2019-01-30T07:41:53.107Z,84.06
2019-01-30T07:44:25.638Z,84.04
2019-01-30T07:46:59.431Z,84.23
2019-01-30T07:49:32.499Z,84.44
2019-01-30T07:52:03.989Z,84.54
2019-01-30T07:54:36.103Z,84.48
2019-01-30T07:57:07.411Z,84.61
2019-01-30T07:59:40.076Z,84.71
2019-01-30T08:02:11.318Z,84.83
2019-01-30T08:04:43.275Z,84.88
2019-01-30T08:07:15.425Z,84.67
2019-01-30T08:09:47.245Z,84.87
2019-01-30T08:12:18.353Z,84.94
2019-01-30T08:14:53.312Z,84.98
2019-01-30T08:17:25.723Z,84.97
2019-01-30T08:19:56.860Z,85.21
2019-01-30T08:22:27.848Z,85.35
2019-01-30T08:24:58.921Z,85.42
2019-01-30T08:27:30.254Z,85.42
2019-01-30T08:30:01.693Z,85.62
2019-01-30T08:32:33.260Z,85.43
2019-01-30T08:35:07.288Z,85.59
2019-01-30T08:37:38.821Z,85.36
2019-01-30T08:40:13.432Z,85.19
2019-01-30T08:42:45.509Z,85.29
2019-01-30T08:45:19.961Z,85.25
2019-01-30T08:47:51.005Z,85.06
2019-01-30T08:50:24.237Z,85.01
2019-01-30T08:52:56.561Z,85.06
2019-01-30T08:55:32.018Z,84.91
2019-01-30T08:58:07.584Z,85.17
2019-01-30T09:00:39.112Z,85.25
2019-01-30T09:03:14.839Z,85.25
2019-01-30T09:05:44.396Z,84.87
2019-01-30T09:08:15.453Z,84.93
2019-01-30T09:10:49.963Z,84.67
2019-01-30T09:13:25.694Z,84.72
2019-01-30T09:16:01.461Z,84.73
2019-01-30T09:18:32.754Z,84.69
2019-01-30T09:21:07.488Z,84.61
2019-01-30T09:23:39.170Z,84.57
2019-01-30T09:26:17.743Z,84.59
2019-01-30T09:28:53.105Z,84.93
2019-01-30T09:31:25.829Z,84.90
2019-01-30T09:33:59.467Z,84.78
2019-01-30T09:36:30.438Z,84.79
2019-01-30T09:39:02.546Z,84.75
2019-01-30T09:41:37.167Z,84.94
2019-01-30T09:44:08.405Z,84.90
2019-01-30T09:46:41.086Z,84.90
2019-01-30T09:49:13.251Z,84.89
2019-01-30T09:51:45.775Z,84.81
2019-01-30T09:54:20.153Z,84.63
2019-01-30T09:56:53.220Z,84.83
2019-01-30T09:59:28.425Z,84.86
2019-01-30T10:02:04.988Z,84.81
2019-01-30T10:04:39.705Z,84.66
2019-01-30T10:07:10.803Z,84.88
2019-01-30T10:09:44.261Z,84.86
2019-01-30T10:12:17.747Z,84.57
2019-01-30T10:14:49.122Z,84.32
2019-01-30T10:17:21.044Z,83.85
2019-01-30T10:19:53.384Z,83.41
2019-01-30T10:22:24.461Z,83.30
2019-01-30T10:24:57.052Z,83.05
2019-01-30T10:27:28.033Z,82.98
2019-01-30T10:30:01.313Z,83.20
2019-01-30T10:32:37.062Z,83.12
2019-01-30T10:35:10.871Z,83.23
2019-01-30T10:37:42.688Z,83.14
2019-01-30T10:40:22.604Z,82.87
2019-01-30T10:42:57.429Z,82.98
2019-01-30T10:45:32.147Z,82.57
2019-01-30T10:48:04.710Z,81.63
2019-01-30T10:50:36.512Z,82.16
2019-01-30T10:53:10.596Z,82.41
2019-01-30T10:55:44.098Z,81.94
2019-01-30T10:58:20.947Z,81.51
2019-01-30T11:00:54.613Z,81.38
2019-01-30T11:03:26.834Z,81.65
2019-01-30T11:05:58.653Z,81.48
2019-01-30T11:08:30.916Z,81.90
2019-01-30T11:11:10.424Z,81.91
2019-01-30T11:13:42.532Z,82.20
2019-01-30T11:16:13.712Z,81.53
2019-01-30T11:18:45.191Z,80.76
2019-01-30T11:21:19.126Z,80.68
2019-01-30T11:23:50.247Z,80.23
2019-01-30T11:26:22.927Z,80.97
2019-01-30T11:28:57.306Z,80.57
2019-01-30T11:31:28.702Z,80.23
2019-01-30T11:34:07.267Z,79.60
2019-01-30T11:36:34.195Z,79.30
2019-01-30T11:39:09.887Z,79.51
2019-01-30T11:41:43.309Z,79.55
2019-01-30T11:44:15.378Z,78.85
2019-01-30T11:46:51.452Z,78.85
2019-01-30T11:49:24.731Z,78.29
2019-01-30T11:51:55.948Z,78.85
2019-01-30T11:54:26.986Z,78.73
2019-01-30T11:57:03.431Z,78.55
2019-01-30T11:59:35.826Z,78.59
2019-01-30T12:02:07.174Z,78.41
2019-01-30T12:04:39.021Z,78.31
2019-01-30T12:07:14.252Z,77.92
2019-01-30T12:09:46.395Z,77.31
2019-01-30T12:12:19.562Z,77.65
2019-01-30T12:14:50.916Z,77.80
2019-01-30T12:17:21.952Z,77.75
2019-01-30T12:19:54.248Z,77.47
2019-01-30T12:22:26.002Z,77.83
2019-01-30T12:24:59.181Z,77.67
2019-01-30T12:27:32.895Z,77.81
2019-01-30T12:30:05.357Z,77.59
2019-01-30T12:32:38.150Z,78.04
2019-01-30T12:35:10.958Z,78.09
2019-01-30T12:37:42.678Z,78.17
2019-01-30T12:40:16.997Z,80.17
2019-01-30T12:42:51.311Z,80.35
2019-01-30T12:45:29.131Z,80.86
2019-01-30T12:48:05.591Z,80.55
2019-01-30T12:50:38.798Z,80.17
2019-01-30T12:53:11.528Z,79.74
2019-01-30T12:55:46.192Z,79.82
2019-01-30T12:58:21.456Z,79.64
2019-01-30T13:00:55.183Z,79.35
2019-01-30T13:03:28.297Z,78.72
2019-01-30T13:06:00.797Z,78.39
2019-01-30T13:08:33.811Z,78.56
2019-01-30T13:11:06.949Z,78.59
2019-01-30T13:13:38.744Z,78.30
2019-01-30T13:16:12.722Z,78.39
2019-01-30T13:18:43.768Z,77.88
2019-01-30T13:21:17.469Z,77.99
2019-01-30T13:23:49.971Z,77.90
2019-01-30T13:26:22.601Z,77.79
2019-01-30T13:28:54.648Z,77.95
2019-01-30T13:31:30.098Z,78.57
2019-01-30T13:34:05.164Z,78.29
2019-01-30T13:36:40.174Z,78.36
2019-01-30T13:39:13.787Z,78.24
2019-01-30T13:41:46.637Z,78.21
2019-01-30T13:44:21.208Z,78.34
2019-01-30T13:46:53.335Z,78.15
2019-01-30T13:49:27.135Z,77.50
2019-01-30T13:51:58.706Z,77.83
2019-01-30T13:54:30.907Z,78.16
2019-01-30T13:57:02.116Z,77.78
2019-01-30T13:59:34.909Z,77.93
2019-01-30T14:02:09.098Z,77.79
2019-01-30T14:04:40.132Z,77.86
2019-01-30T14:07:11.265Z,77.93
2019-01-30T14:09:43.463Z,79.36
2019-01-30T14:12:15.186Z,80.69
2019-01-30T14:14:47.419Z,81.27
2019-01-30T14:17:24.865Z,82.47
2019-01-30T14:19:56.039Z,82.41
2019-01-30T14:22:28.977Z,83.60
2019-01-30T14:25:02.349Z,83.84
2019-01-30T14:27:35.131Z,84.80
2019-01-30T14:30:13.486Z,84.35
2019-01-30T14:32:47.195Z,83.87
2019-01-30T14:35:20.570Z,80.46
2019-01-30T14:37:52.273Z,77.82
2019-01-30T14:40:24.891Z,79.60
2019-01-30T14:42:56.173Z,80.17
2019-01-30T14:45:27.370Z,80.61
2019-01-30T14:47:58.730Z,81.49
2019-01-30T14:50:29.997Z,81.37
2019-01-30T14:53:01.186Z,81.29
2019-01-30T14:55:36.718Z,81.25
2019-01-30T14:58:09.666Z,80.48
2019-01-30T15:00:40.943Z,78.96
2019-01-30T15:03:15.840Z,78.56
2019-01-30T15:05:49.954Z,78.11
2019-01-30T15:08:24.213Z,78.21
2019-01-30T15:10:56.142Z,77.57
2019-01-30T15:13:27.932Z,77.29
2019-01-30T15:15:58.972Z,78.20
2019-01-30T15:18:30.662Z,77.53
2019-01-30T15:21:03.500Z,77.06
2019-01-30T15:23:34.657Z,77.02
2019-01-30T15:26:06.709Z,76.83
2019-01-30T15:28:37.757Z,78.79
2019-01-30T15:31:08.940Z,79.05
2019-01-30T15:33:41.046Z,79.16
2019-01-30T15:36:13.028Z,79.59
2019-01-30T15:38:46.190Z,80.24
2019-01-30T15:41:17.629Z,80.18
2019-01-30T15:43:49.739Z,79.16
2019-01-30T15:46:21.715Z,79.34
2019-01-30T15:48:53.790Z,79.40
2019-01-30T15:51:25.143Z,79.70
2019-01-30T15:53:57.579Z,79.89
2019-01-30T15:56:30.358Z,80.39
2019-01-30T15:59:01.543Z,80.28
2019-01-30T16:01:39.477Z,80.73
2019-01-30T16:04:10.550Z,80.72
2019-01-30T16:06:41.567Z,80.68
2019-01-30T16:09:12.688Z,80.75
2019-01-30T16:11:44.365Z,80.95
2019-01-30T16:14:17.534Z,80.95
2019-01-30T16:16:49.841Z,80.94
2019-01-30T16:19:20.942Z,81.09
2019-01-30T16:21:52.409Z,80.99
2019-01-30T16:24:24.031Z,81.18
2019-01-30T16:26:55.744Z,81.32
2019-01-30T16:29:27.081Z,81.52
2019-01-30T16:31:58.986Z,81.76
2019-01-30T16:34:30.416Z,81.73
2019-01-30T16:37:02.346Z,82.05
2019-01-30T16:39:33.656Z,82.60
2019-01-30T16:42:05.412Z,82.83
2019-01-30T16:44:36.567Z,83.73
2019-01-30T16:47:08.233Z,84.11
2019-01-30T16:49:40.584Z,84.67
2019-01-30T16:52:11.780Z,85.38
2019-01-30T16:54:43.598Z,85.96
2019-01-30T16:57:15.367Z,86.55
2019-01-30T16:59:46.731Z,87.42
2019-01-30T17:02:17.781Z,87.77
2019-01-30T17:04:49.395Z,88.22
2019-01-30T17:07:20.607Z,88.46
2019-01-30T17:09:52.329Z,88.59
2019-01-30T17:12:24.456Z,88.65
2019-01-30T17:14:56.063Z,88.71
2019-01-30T17:17:27.260Z,88.85
2019-01-30T17:19:58.383Z,88.74
2019-01-30T17:22:29.519Z,88.70
2019-01-30T17:25:00.753Z,88.72
2019-01-30T17:27:31.802Z,88.72
2019-01-30T17:30:03.021Z,88.76
2019-01-30T17:32:34.227Z,88.66
2019-01-30T17:35:06.510Z,88.64
2019-01-30T17:37:37.634Z,88.65
2019-01-30T17:40:13.476Z,88.55
2019-01-30T17:42:44.611Z,88.67
2019-01-30T17:45:15.845Z,88.70
2019-01-30T17:47:47.302Z,88.65
2019-01-30T17:50:20.949Z,88.60
2019-01-30T17:52:52.150Z,88.58
2019-01-30T17:55:26.019Z,88.79
2019-01-30T17:57:56.538Z,88.86
2019-01-30T18:00:57.654Z,88.92
2019-01-30T18:03:28.769Z,88.87
2019-01-30T18:05:59.819Z,88.84
2019-01-30T18:08:30.951Z,88.90
2019-01-30T18:11:01.969Z,88.93
2019-01-30T18:13:32.994Z,88.92
2019-01-30T18:16:04.253Z,88.92
2019-01-30T18:18:35.764Z,88.86
2019-01-30T18:21:06.745Z,88.78
2019-01-30T18:23:37.845Z,88.64
2019-01-30T18:26:08.822Z,88.54
2019-01-30T18:28:39.853Z,88.42
2019-01-30T18:31:10.925Z,88.29
2019-01-30T18:33:42.337Z,88.18
2019-01-30T18:36:13.688Z,87.91
2019-01-30T18:38:44.964Z,87.63
2019-01-30T18:41:16.031Z,87.54
2019-01-30T18:43:47.075Z,87.50
2019-01-30T18:46:18.281Z,87.35
2019-01-30T18:48:49.492Z,87.19
2019-01-30T18:51:20.575Z,87.22
2019-01-30T18:53:51.743Z,87.11
2019-01-30T18:56:23.090Z,86.78
2019-01-30T18:58:54.331Z,86.90
2019-01-30T19:01:25.791Z,86.71
2019-01-30T19:03:56.899Z,86.38
2019-01-30T19:06:28.149Z,86.25
2019-01-30T19:08:59.242Z,86.17
2019-01-30T19:11:30.841Z,86.15
2019-01-30T19:14:01.950Z,86.18
2019-01-30T19:16:33.122Z,86.05
2019-01-30T19:19:04.411Z,86.04
2019-01-30T19:21:36.337Z,85.91
2019-01-30T19:24:07.599Z,85.81
2019-01-30T19:26:38.803Z,85.67
2019-01-30T19:29:11.651Z,85.57
2019-01-30T19:31:42.692Z,85.39
2019-01-30T19:34:15.436Z,85.23
2019-01-30T19:36:46.954Z,85.04
2019-01-30T19:39:17.977Z,84.77
2019-01-30T19:41:50.359Z,84.59
2019-01-30T19:44:21.688Z,84.62
2019-01-30T19:46:55.833Z,84.64
2019-01-30T19:49:25.889Z,84.70
2019-01-30T19:51:57.279Z,84.75
2019-01-30T19:54:28.394Z,84.67
2019-01-30T19:56:59.698Z,84.67
2019-01-30T19:59:30.698Z,84.59
2019-01-30T20:02:02.198Z,84.57
2019-01-30T20:04:35.090Z,84.38
2019-01-30T20:07:14.507Z,84.33
2019-01-30T20:09:39.298Z,84.16
2019-01-30T20:12:10.445Z,83.97
2019-01-30T20:14:41.706Z,83.90
2019-01-30T20:17:13.150Z,84.02
2019-01-30T20:19:44.736Z,84.02
2019-01-30T20:22:15.915Z,83.98
2019-01-30T20:24:46.973Z,83.87
2019-01-30T20:27:18.387Z,83.87
2019-01-30T20:29:49.729Z,83.83
2019-01-30T20:32:20.723Z,83.74
2019-01-30T20:34:52.488Z,83.50
2019-01-30T20:37:26.374Z,83.40
2019-01-30T20:39:56.717Z,83.34
2019-01-30T20:42:27.921Z,83.23
2019-01-30T20:44:58.985Z,83.12
2019-01-30T20:47:30.031Z,82.95
2019-01-30T20:50:01.123Z,82.89
2019-01-30T20:52:32.412Z,82.69
2019-01-30T20:55:04.626Z,82.72
2019-01-30T20:57:35.886Z,82.83
2019-01-30T21:00:10.368Z,82.79
2019-01-30T21:02:41.841Z,82.78
2019-01-30T21:05:13.326Z,82.85
2019-01-30T21:07:44.613Z,82.83
2019-01-30T21:10:18.741Z,82.94
2019-01-30T21:12:51.546Z,82.96
2019-01-30T21:15:23.548Z,82.78
2019-01-30T21:17:58.111Z,82.80
2019-01-30T21:20:29.215Z,82.68
2019-01-30T21:23:01.376Z,82.66
2019-01-30T21:25:33.861Z,82.47
2019-01-30T21:28:05.433Z,82.36
2019-01-30T21:30:37.806Z,82.03
2019-01-30T21:33:08.996Z,81.55
2019-01-30T21:35:40.776Z,81.52
2019-01-30T21:38:11.908Z,81.49
2019-01-30T21:40:43.195Z,81.52
2019-01-30T21:43:14.366Z,81.47
2019-01-30T21:45:45.436Z,81.77
2019-01-30T21:48:17.603Z,81.93
2019-01-30T21:50:48.887Z,82.33
2019-01-30T21:53:20.050Z,82.28
2019-01-30T21:55:51.254Z,82.24
2019-01-30T21:58:22.398Z,82.14
2019-01-30T22:00:53.731Z,82.33
2019-01-30T22:03:25.121Z,82.18
2019-01-30T22:05:56.945Z,82.38
2019-01-30T22:08:27.999Z,82.30
2019-01-30T22:10:59.125Z,82.28
2019-01-30T22:13:30.264Z,82.21
2019-01-30T22:16:01.416Z,82.20
2019-01-30T22:18:32.660Z,82.12
2019-01-30T22:21:03.759Z,81.96
2019-01-30T22:23:35.085Z,81.86
2019-01-30T22:26:06.275Z,82.03
2019-01-30T22:28:37.463Z,81.80
2019-01-30T22:31:10.054Z,81.77
2019-01-30T22:33:41.337Z,81.90
2019-01-30T22:36:12.802Z,81.92
2019-01-30T22:38:45.337Z,82.00
2019-01-30T22:41:16.483Z,81.98
2019-01-30T22:43:48.689Z,82.06
2019-01-30T22:46:21.090Z,82.06
2019-01-30T22:48:55.041Z,82.11
2019-01-30T22:51:26.674Z,82.15
2019-01-30T22:53:58.800Z,82.28
2019-01-30T22:56:30.047Z,82.33
2019-01-30T22:59:01.285Z,82.37
2019-01-30T23:02:02.716Z,82.67
2019-01-30T23:05:26.694Z,82.92
2019-01-30T23:08:22.925Z,83.06
2019-01-30T23:11:17.255Z,83.17
2019-01-30T23:14:27.272Z,83.32
2019-01-30T23:17:28.522Z,83.44
2019-01-30T23:20:31.353Z,83.50
2019-01-30T23:23:27.727Z,83.46
2019-01-30T23:26:17.617Z,83.54
2019-01-30T23:29:34.207Z,83.42
2019-01-30T23:32:43.917Z,83.49
2019-01-30T23:35:50.444Z,83.46
2019-01-30T23:38:53.450Z,83.52
2019-01-30T23:41:55.726Z,83.41
2019-01-30T23:44:56.641Z,83.08
2019-01-30T23:48:17.758Z,83.28
2019-01-30T23:51:16.306Z,83.33
2019-01-30T23:54:16.045Z,83.38
2019-01-30T23:57:10.431Z,83.48
